• Join FlightAware (Why Join?)
  • Login
  • US Flag 
03:30AM EDT


 

Airport Tracker/Info


-or-


 

Live Flight TrackerFlight Track Log ✈ CES5098 ✈ 14-Dec-2013 ✈ RCSS / TSA - ZSSS / SHA

Flight Track Log - Related Links

Times and Time Zones

All times are in EST time to prevent confusion due to time zone crossing. See the CES5098 flight status page for this flight to view local times or setup timezone preferences in your user account.

Time Position Orientation Groundspeed Altitude Reporting Facility
EST Latitude Longitude Course Direction KTS MPH feet Rate Location/Type
04:29AM 26.4222 121.5062 358° North  Level Estimated
04:30AM 26.5018 121.5035 358° North  Level Estimated
04:31AM 26.5814 121.5008 358° North  Level Estimated
04:32AM 26.6609 121.4980 358° North  Level Estimated
04:33AM 26.7405 121.4953 358° North  Level Estimated
04:34AM 26.8201 121.4926 358° North  Level Estimated
04:35AM 26.8996 121.4899 358° North  Level Estimated
04:36AM 26.9792 121.4871 358° North  Level Estimated
04:37AM 27.0588 121.4844 358° North  Level Estimated
04:38AM 27.1383 121.4817 358° North  Level Estimated
04:39AM 27.2179 121.4789 358° North  Level Estimated
04:40AM 27.2975 121.4762 358° North  Level Estimated
04:41AM 27.3771 121.4734 358° North  Level Estimated
04:42AM 27.4566 121.4707 358° North  Level Estimated
04:43AM 27.5362 121.4679 358° North  Level Estimated
04:44AM 27.6158 121.4652 358° North  Level Estimated
04:45AM 27.6953 121.4624 358° North  Level Estimated
04:46AM 27.7749 121.4596 358° North  Level Estimated
04:47AM 27.8545 121.4568 358° North  Level Estimated
04:48AM 27.9340 121.4541 358° North  Level Estimated
04:49AM 28.0136 121.4513 358° North  Level Estimated
04:50AM 28.0932 121.4485 358° North  Level Estimated
04:51AM 28.1728 121.4457 358° North  Level Estimated
04:52AM 28.2523 121.4429 358° North  Level Estimated
04:53AM 28.3319 121.4401 358° North  Level Estimated
04:54AM 28.4115 121.4373 358° North  Level Estimated
04:55AM 28.4910 121.4345 358° North  Level Estimated
04:56AM 28.5706 121.4317 358° North  Level Estimated
04:57AM 28.6502 121.4289 358° North  Level Estimated
04:58AM 28.7297 121.4260 358° North  Level Estimated
04:59AM 28.8093 121.4232 358° North  Level Estimated
05:00AM 28.8889 121.4204 358° North  Level Estimated
05:01AM 28.9685 121.4176 358° North  Level Estimated
05:02AM 29.0480 121.4147 358° North  Level Estimated
05:03AM 29.1276 121.4119 358° North  Level Estimated
05:04AM 29.2072 121.4090 358° North  Level Estimated
05:05AM 29.2867 121.4062 358° North  Level Estimated
05:06AM 29.3663 121.4033 358° North  Level Estimated
05:07AM 29.4459 121.4005 358° North  Level Estimated
05:08AM 29.5254 121.3976 358° North  Level Estimated
05:09AM 29.6050 121.3947 358° North  Level Estimated
05:10AM 29.6846 121.3919 358° North  Level Estimated
05:11AM 29.7642 121.3890 358° North  Level Estimated
05:12AM 29.8437 121.3861 358° North  Level Estimated
05:13AM 29.9233 121.3832 358° North  Level Estimated
05:14AM 30.0029 121.3803 358° North  Level Estimated
05:15AM 30.0824 121.3774 358° North  Level Estimated
05:16AM 30.1620 121.3745 358° North  Level Estimated
05:17AM 30.2416 121.3716 358° North  Level Estimated
05:18AM 30.3211 121.3687 358° North  Level Estimated
05:19AM 30.4007 121.3658 358° North  Level Estimated
05:20AM 30.4803 121.3629 358° North  Level Estimated
05:21AM 30.5599 121.3599 358° North  Level Estimated
05:22AM 30.6394 121.3570 358° North  Level Estimated
05:23AM 30.7190 121.3541 358° North  Level Estimated
05:24AM 30.7986 121.3512 358° North  Level Estimated
05:25AM 30.8781 121.3482 358° North  Level Estimated
05:26AM 30.9577 121.3453 358° North  Level Estimated
05:27AM 31.0373 121.3423 358° North  Level Estimated
05:28AM 31.1168 121.3393 358° North  Level Estimated
05:29AM 31.1964 121.3364 358° North  Level Estimated
05:30AM 31.1979 121.3363 358° North  Level Estimated
05:31AM 31.1979 121.3363 350° North  Level Estimated
05:32AM 31.1979 121.3363 350° North  Level Estimated
05:33AM 31.1979 121.3363 350° North  Level Estimated
05:34AM 31.1979 121.3363 350° North  Level Estimated
05:35AM 31.1979 121.3363 350° North  Level Estimated
05:36AM 31.1979 121.3363 350° North  Level Estimated
05:37AM 31.1979 121.3363 350° North  Level Estimated